sensor_id;sensor_type;location;lat;lon;timestamp;pressure;altitude;pressure_sealevel;temperature;humidity
62592;BME280;48659;41.622;2.276;2023-02-14T00:00:11;101727.00;;;5.53;58.99
62592;BME280;48659;41.622;2.276;2023-02-14T00:02:39;101721.89;;;5.06;58.11
62592;BME280;48659;41.622;2.276;2023-02-14T00:05:07;101726.81;;;4.45;60.76
62592;BME280;48659;41.622;2.276;2023-02-14T00:07:35;101719.38;;;6.03;57.20
62592;BME280;48659;41.622;2.276;2023-02-14T00:10:03;101715.10;;;5.87;57.11
62592;BME280;48659;41.622;2.276;2023-02-14T00:12:30;101715.82;;;5.01;57.97
62592;BME280;48659;41.622;2.276;2023-02-14T00:14:57;101715.52;;;5.13;57.71
62592;BME280;48659;41.622;2.276;2023-02-14T00:17:25;101713.58;;;5.39;57.27
62592;BME280;48659;41.622;2.276;2023-02-14T00:19:52;101713.71;;;5.35;57.48
62592;BME280;48659;41.622;2.276;2023-02-14T00:22:20;101713.06;;;4.72;57.87
62592;BME280;48659;41.622;2.276;2023-02-14T00:24:48;101712.74;;;4.83;58.07
62592;BME280;48659;41.622;2.276;2023-02-14T00:27:21;101713.35;;;4.69;58.71
62592;BME280;48659;41.622;2.276;2023-02-14T00:29:48;101707.75;;;4.90;58.48
62592;BME280;48659;41.622;2.276;2023-02-14T00:32:16;101709.15;;;4.71;58.15
62592;BME280;48659;41.622;2.276;2023-02-14T00:34:43;101704.63;;;5.05;57.85
62592;BME280;48659;41.622;2.276;2023-02-14T00:37:11;101705.67;;;4.97;58.22
62592;BME280;48659;41.622;2.276;2023-02-14T00:39:38;101705.44;;;4.77;58.18
62592;BME280;48659;41.622;2.276;2023-02-14T00:42:07;101706.40;;;4.66;58.11
62592;BME280;48659;41.622;2.276;2023-02-14T00:44:35;101703.50;;;4.68;58.04
62592;BME280;48659;41.622;2.276;2023-02-14T00:47:03;101697.11;;;3.83;59.26
62592;BME280;48659;41.622;2.276;2023-02-14T00:49:30;101697.81;;;4.26;58.39
62592;BME280;48659;41.622;2.276;2023-02-14T00:51:58;101697.75;;;4.65;58.25
62592;BME280;48659;41.622;2.276;2023-02-14T00:54:26;101691.52;;;4.62;57.04
62592;BME280;48659;41.622;2.276;2023-02-14T00:56:53;101692.36;;;4.81;57.15
62592;BME280;48659;41.622;2.276;2023-02-14T00:59:21;101692.94;;;5.09;56.44
62592;BME280;48659;41.622;2.276;2023-02-14T01:01:48;101692.46;;;4.73;57.59
62592;BME280;48659;41.622;2.276;2023-02-14T01:04:16;101693.77;;;4.59;58.24
62592;BME280;48659;41.622;2.276;2023-02-14T01:06:44;101693.83;;;4.35;58.53
62592;BME280;48659;41.622;2.276;2023-02-14T01:09:12;101691.01;;;4.19;58.31
62592;BME280;48659;41.622;2.276;2023-02-14T01:11:39;101688.58;;;4.25;58.73
62592;BME280;48659;41.622;2.276;2023-02-14T01:14:07;101690.69;;;4.55;58.83
62592;BME280;48659;41.622;2.276;2023-02-14T01:16:36;101689.88;;;4.03;59.81
62592;BME280;48659;41.622;2.276;2023-02-14T01:19:04;101690.10;;;4.47;58.50
62592;BME280;48659;41.622;2.276;2023-02-14T01:21:33;101682.52;;;4.67;57.94
62592;BME280;48659;41.622;2.276;2023-02-14T01:24:03;101686.91;;;4.69;57.81
62592;BME280;48659;41.622;2.276;2023-02-14T01:26:33;101685.08;;;4.83;57.62
62592;BME280;48659;41.622;2.276;2023-02-14T01:29:01;101684.96;;;5.06;55.97
62592;BME280;48659;41.622;2.276;2023-02-14T01:31:30;101683.33;;;4.81;55.80
62592;BME280;48659;41.622;2.276;2023-02-14T01:33:59;101687.57;;;4.47;57.47
62592;BME280;48659;41.622;2.276;2023-02-14T01:36:28;101685.96;;;4.32;57.54
62592;BME280;48659;41.622;2.276;2023-02-14T01:38:58;101679.28;;;5.20;56.47
62592;BME280;48659;41.622;2.276;2023-02-14T01:41:28;101676.70;;;3.07;59.43
62592;BME280;48659;41.622;2.276;2023-02-14T01:43:58;101678.06;;;3.87;57.70
62592;BME280;48659;41.622;2.276;2023-02-14T01:46:28;101673.61;;;3.18;57.97
62592;BME280;48659;41.622;2.276;2023-02-14T01:49:01;101671.85;;;4.50;56.33
62592;BME280;48659;41.622;2.276;2023-02-14T01:51:30;101671.88;;;4.27;56.81
62592;BME280;48659;41.622;2.276;2023-02-14T01:53:58;101673.22;;;3.21;59.99
62592;BME280;48659;41.622;2.276;2023-02-14T01:56:31;101670.27;;;3.65;59.33
62592;BME280;48659;41.622;2.276;2023-02-14T01:59:04;101669.68;;;4.22;57.86
62592;BME280;48659;41.622;2.276;2023-02-14T02:01:33;101667.48;;;2.74;60.69
62592;BME280;48659;41.622;2.276;2023-02-14T02:04:03;101670.02;;;3.06;59.25
62592;BME280;48659;41.622;2.276;2023-02-14T02:06:45;101671.95;;;3.04;60.73
62592;BME280;48659;41.622;2.276;2023-02-14T02:09:19;101670.53;;;3.84;58.58
62592;BME280;48659;41.622;2.276;2023-02-14T02:11:48;101673.32;;;4.29;57.62
62592;BME280;48659;41.622;2.276;2023-02-14T02:14:21;101672.20;;;4.46;56.77
62592;BME280;48659;41.622;2.276;2023-02-14T02:17:02;101668.65;;;3.77;57.97
62592;BME280;48659;41.622;2.276;2023-02-14T02:20:02;101670.27;;;3.98;57.38
62592;BME280;48659;41.622;2.276;2023-02-14T02:23:32;101665.22;;;3.66;58.02
62592;BME280;48659;41.622;2.276;2023-02-14T02:27:15;101661.47;;;4.03;57.23
62592;BME280;48659;41.622;2.276;2023-02-14T02:30:12;101654.42;;;3.95;56.38
62592;BME280;48659;41.622;2.276;2023-02-14T02:33:43;101647.38;;;3.57;57.18
62592;BME280;48659;41.622;2.276;2023-02-14T02:36:35;101648.42;;;3.63;56.71
62592;BME280;48659;41.622;2.276;2023-02-14T02:39:27;101642.05;;;3.26;58.03
62592;BME280;48659;41.622;2.276;2023-02-14T02:42:04;101641.62;;;3.06;60.67
62592;BME280;48659;41.622;2.276;2023-02-14T02:44:42;101637.54;;;3.62;58.61
62592;BME280;48659;41.622;2.276;2023-02-14T02:47:20;101636.25;;;3.50;58.19
62592;BME280;48659;41.622;2.276;2023-02-14T02:49:57;101628.17;;;3.16;59.13
62592;BME280;48659;41.622;2.276;2023-02-14T02:52:34;101625.76;;;3.74;57.89
62592;BME280;48659;41.622;2.276;2023-02-14T02:55:19;101622.40;;;3.42;58.41
62592;BME280;48659;41.622;2.276;2023-02-14T02:57:51;101624.72;;;3.75;57.52
62592;BME280;48659;41.622;2.276;2023-02-14T03:00:21;101623.94;;;3.72;57.41
62592;BME280;48659;41.622;2.276;2023-02-14T03:02:52;101624.71;;;4.12;57.19
62592;BME280;48659;41.622;2.276;2023-02-14T03:05:28;101625.21;;;3.79;57.06
62592;BME280;48659;41.622;2.276;2023-02-14T03:07:55;101622.48;;;3.86;56.99
62592;BME280;48659;41.622;2.276;2023-02-14T03:10:25;101619.40;;;3.45;57.77
62592;BME280;48659;41.622;2.276;2023-02-14T03:13:38;101623.01;;;3.47;57.49
62592;BME280;48659;41.622;2.276;2023-02-14T03:17:28;101625.57;;;2.95;58.71
62592;BME280;48659;41.622;2.276;2023-02-14T03:20:00;101624.62;;;3.24;58.05
62592;BME280;48659;41.622;2.276;2023-02-14T03:22:42;101625.13;;;3.52;58.03
62592;BME280;48659;41.622;2.276;2023-02-14T03:25:23;101622.73;;;3.17;58.51
62592;BME280;48659;41.622;2.276;2023-02-14T03:28:03;101622.14;;;3.49;58.54
62592;BME280;48659;41.622;2.276;2023-02-14T03:30:37;101620.14;;;3.82;57.63
62592;BME280;48659;41.622;2.276;2023-02-14T03:33:15;101622.45;;;3.15;58.63
62592;BME280;48659;41.622;2.276;2023-02-14T03:35:50;101620.97;;;3.51;58.75
62592;BME280;48659;41.622;2.276;2023-02-14T03:38:24;101621.68;;;3.00;59.04
62592;BME280;48659;41.622;2.276;2023-02-14T03:40:58;101621.72;;;3.62;58.20
62592;BME280;48659;41.622;2.276;2023-02-14T03:43:30;101627.95;;;3.56;57.35
62592;BME280;48659;41.622;2.276;2023-02-14T03:46:05;101631.11;;;3.53;57.37
62592;BME280;48659;41.622;2.276;2023-02-14T03:48:41;101631.12;;;3.66;56.59
62592;BME280;48659;41.622;2.276;2023-02-14T03:51:15;101628.57;;;3.59;56.88
62592;BME280;48659;41.622;2.276;2023-02-14T03:53:48;101627.23;;;3.83;57.18
62592;BME280;48659;41.622;2.276;2023-02-14T03:56:22;101624.87;;;3.50;57.19
62592;BME280;48659;41.622;2.276;2023-02-14T03:58:55;101625.61;;;3.52;57.42
62592;BME280;48659;41.622;2.276;2023-02-14T04:01:29;101626.28;;;3.33;57.47
62592;BME280;48659;41.622;2.276;2023-02-14T04:03:59;101629.34;;;3.91;56.69
62592;BME280;48659;41.622;2.276;2023-02-14T04:06:27;101632.01;;;3.87;56.92
62592;BME280;48659;41.622;2.276;2023-02-14T04:08:54;101633.99;;;3.62;57.06
62592;BME280;48659;41.622;2.276;2023-02-14T04:11:22;101633.50;;;3.66;56.85
62592;BME280;48659;41.622;2.276;2023-02-14T04:13:50;101638.87;;;3.89;55.54
62592;BME280;48659;41.622;2.276;2023-02-14T04:16:17;101639.26;;;4.35;55.46
62592;BME280;48659;41.622;2.276;2023-02-14T04:18:45;101640.80;;;4.36;55.01
62592;BME280;48659;41.622;2.276;2023-02-14T04:21:12;101642.18;;;4.08;55.60
62592;BME280;48659;41.622;2.276;2023-02-14T04:23:40;101643.04;;;3.77;55.88
62592;BME280;48659;41.622;2.276;2023-02-14T04:26:15;101649.68;;;3.12;57.79
62592;BME280;48659;41.622;2.276;2023-02-14T04:28:42;101646.63;;;3.41;56.94
62592;BME280;48659;41.622;2.276;2023-02-14T04:31:14;101647.88;;;3.11;57.35
62592;BME280;48659;41.622;2.276;2023-02-14T04:33:42;101646.25;;;3.05;57.36
62592;BME280;48659;41.622;2.276;2023-02-14T04:36:09;101647.95;;;2.91;57.05
62592;BME280;48659;41.622;2.276;2023-02-14T04:38:37;101647.09;;;3.27;58.02
62592;BME280;48659;41.622;2.276;2023-02-14T04:41:05;101644.23;;;2.70;59.32
62592;BME280;48659;41.622;2.276;2023-02-14T04:43:32;101648.96;;;1.09;63.49
62592;BME280;48659;41.622;2.276;2023-02-14T04:45:59;101643.68;;;2.46;61.45
62592;BME280;48659;41.622;2.276;2023-02-14T04:48:27;101642.95;;;3.25;58.41
62592;BME280;48659;41.622;2.276;2023-02-14T04:50:54;101643.29;;;2.30;60.51
62592;BME280;48659;41.622;2.276;2023-02-14T04:53:22;101644.48;;;2.97;58.99
62592;BME280;48659;41.622;2.276;2023-02-14T04:55:49;101647.81;;;3.09;57.96
62592;BME280;48659;41.622;2.276;2023-02-14T04:58:17;101647.08;;;2.75;58.26
62592;BME280;48659;41.622;2.276;2023-02-14T05:00:45;101646.88;;;3.25;58.52
62592;BME280;48659;41.622;2.276;2023-02-14T05:03:12;101650.81;;;2.84;58.99
62592;BME280;48659;41.622;2.276;2023-02-14T05:05:47;101651.38;;;2.97;58.47
62592;BME280;48659;41.622;2.276;2023-02-14T05:08:15;101652.26;;;2.92;58.08
62592;BME280;48659;41.622;2.276;2023-02-14T05:10:43;101652.67;;;3.36;57.95
62592;BME280;48659;41.622;2.276;2023-02-14T05:13:16;101650.28;;;2.78;58.70
62592;BME280;48659;41.622;2.276;2023-02-14T05:15:43;101651.32;;;3.25;58.20
62592;BME280;48659;41.622;2.276;2023-02-14T05:18:11;101653.35;;;2.62;59.27
62592;BME280;48659;41.622;2.276;2023-02-14T05:20:39;101649.52;;;2.97;58.79
62592;BME280;48659;41.622;2.276;2023-02-14T05:23:14;101649.10;;;2.63;59.48
62592;BME280;48659;41.622;2.276;2023-02-14T05:25:41;101646.29;;;3.36;57.63
62592;BME280;48659;41.622;2.276;2023-02-14T05:28:15;101649.70;;;2.55;57.99
62592;BME280;48659;41.622;2.276;2023-02-14T05:30:42;101646.09;;;3.49;57.45
62592;BME280;48659;41.622;2.276;2023-02-14T05:33:14;101643.27;;;2.87;57.11
62592;BME280;48659;41.622;2.276;2023-02-14T05:35:43;101648.34;;;3.45;56.85
62592;BME280;48659;41.622;2.276;2023-02-14T05:38:11;101652.90;;;3.16;56.64
62592;BME280;48659;41.622;2.276;2023-02-14T05:40:39;101651.05;;;2.97;57.38
62592;BME280;48659;41.622;2.276;2023-02-14T05:43:07;101652.69;;;2.52;58.25
62592;BME280;48659;41.622;2.276;2023-02-14T05:45:34;101651.18;;;2.69;57.83
62592;BME280;48659;41.622;2.276;2023-02-14T05:48:01;101648.92;;;2.17;58.76
62592;BME280;48659;41.622;2.276;2023-02-14T05:50:29;101645.90;;;2.21;58.21
62592;BME280;48659;41.622;2.276;2023-02-14T05:52:57;101648.83;;;2.65;57.52
62592;BME280;48659;41.622;2.276;2023-02-14T05:55:32;101647.71;;;2.53;58.57
62592;BME280;48659;41.622;2.276;2023-02-14T05:58:00;101648.73;;;2.87;58.49
62592;BME280;48659;41.622;2.276;2023-02-14T06:00:28;101648.40;;;3.25;58.26
62592;BME280;48659;41.622;2.276;2023-02-14T06:02:56;101645.81;;;3.15;58.73
62592;BME280;48659;41.622;2.276;2023-02-14T06:05:23;101645.74;;;3.24;58.71
62592;BME280;48659;41.622;2.276;2023-02-14T06:07:51;101650.53;;;3.30;57.90
62592;BME280;48659;41.622;2.276;2023-02-14T06:10:20;101650.10;;;3.23;57.07
62592;BME280;48659;41.622;2.276;2023-02-14T06:12:49;101648.54;;;3.36;56.61
62592;BME280;48659;41.622;2.276;2023-02-14T06:15:17;101650.02;;;3.25;56.43
62592;BME280;48659;41.622;2.276;2023-02-14T06:17:51;101652.02;;;3.71;56.60
62592;BME280;48659;41.622;2.276;2023-02-14T06:20:19;101650.13;;;3.10;56.85
62592;BME280;48659;41.622;2.276;2023-02-14T06:22:47;101649.11;;;3.16;56.46
62592;BME280;48659;41.622;2.276;2023-02-14T06:25:14;101650.02;;;3.16;55.75
62592;BME280;48659;41.622;2.276;2023-02-14T06:27:42;101655.23;;;2.83;56.82
62592;BME280;48659;41.622;2.276;2023-02-14T06:30:11;101655.11;;;2.31;57.91
62592;BME280;48659;41.622;2.276;2023-02-14T06:32:40;101660.88;;;1.65;59.64
62592;BME280;48659;41.622;2.276;2023-02-14T06:35:08;101664.42;;;2.04;59.75
62592;BME280;48659;41.622;2.276;2023-02-14T06:37:41;101666.25;;;2.17;59.15
62592;BME280;48659;41.622;2.276;2023-02-14T06:40:16;101666.12;;;2.37;58.80
62592;BME280;48659;41.622;2.276;2023-02-14T06:42:44;101666.45;;;2.66;58.33
62592;BME280;48659;41.622;2.276;2023-02-14T06:45:11;101668.24;;;2.16;59.62
62592;BME280;48659;41.622;2.276;2023-02-14T06:47:38;101672.55;;;2.12;60.32
62592;BME280;48659;41.622;2.276;2023-02-14T06:50:07;101672.87;;;2.62;58.87
62592;BME280;48659;41.622;2.276;2023-02-14T06:52:35;101678.07;;;2.58;58.27
62592;BME280;48659;41.622;2.276;2023-02-14T06:55:03;101679.41;;;2.74;57.82
62592;BME280;48659;41.622;2.276;2023-02-14T06:57:30;101683.26;;;2.72;57.83
62592;BME280;48659;41.622;2.276;2023-02-14T06:59:58;101686.35;;;3.34;56.25
62592;BME280;48659;41.622;2.276;2023-02-14T07:02:25;101690.91;;;3.36;56.21
62592;BME280;48659;41.622;2.276;2023-02-14T07:04:53;101693.13;;;3.26;56.67
62592;BME280;48659;41.622;2.276;2023-02-14T07:07:20;101695.31;;;3.15;57.43
62592;BME280;48659;41.622;2.276;2023-02-14T07:09:48;101701.88;;;3.12;57.81
62592;BME280;48659;41.622;2.276;2023-02-14T07:12:15;101701.84;;;3.46;57.04
62592;BME280;48659;41.622;2.276;2023-02-14T07:14:43;101708.31;;;2.75;57.96
62592;BME280;48659;41.622;2.276;2023-02-14T07:17:10;101710.51;;;3.23;56.89
62592;BME280;48659;41.622;2.276;2023-02-14T07:19:37;101715.23;;;2.84;57.40
62592;BME280;48659;41.622;2.276;2023-02-14T07:22:05;101720.79;;;2.52;57.77
62592;BME280;48659;41.622;2.276;2023-02-14T07:24:33;101721.41;;;2.93;57.46
62592;BME280;48659;41.622;2.276;2023-02-14T07:27:01;101725.64;;;2.99;57.53
62592;BME280;48659;41.622;2.276;2023-02-14T07:29:29;101727.10;;;3.66;56.67
62592;BME280;48659;41.622;2.276;2023-02-14T07:31:57;101732.84;;;3.03;56.97
62592;BME280;48659;41.622;2.276;2023-02-14T07:34:25;101729.48;;;3.14;57.63
62592;BME280;48659;41.622;2.276;2023-02-14T07:36:52;101729.91;;;3.68;56.69
62592;BME280;48659;41.622;2.276;2023-02-14T07:39:20;101733.80;;;3.67;56.64
62592;BME280;48659;41.622;2.276;2023-02-14T07:41:47;101730.78;;;3.86;56.61
62592;BME280;48659;41.622;2.276;2023-02-14T07:44:16;101730.61;;;3.45;56.54
62592;BME280;48659;41.622;2.276;2023-02-14T07:46:43;101734.32;;;3.53;56.93
62592;BME280;48659;41.622;2.276;2023-02-14T07:49:15;101738.40;;;3.83;56.43
62592;BME280;48659;41.622;2.276;2023-02-14T07:51:42;101740.01;;;4.25;55.84
62592;BME280;48659;41.622;2.276;2023-02-14T07:54:10;101737.50;;;4.26;56.05
62592;BME280;48659;41.622;2.276;2023-02-14T07:56:37;101734.82;;;4.18;56.68
62592;BME280;48659;41.622;2.276;2023-02-14T07:59:05;101735.47;;;4.01;57.50
62592;BME280;48659;41.622;2.276;2023-02-14T08:01:33;101734.77;;;4.46;55.99
62592;BME280;48659;41.622;2.276;2023-02-14T08:04:00;101732.27;;;4.45;56.84
62592;BME280;48659;41.622;2.276;2023-02-14T08:06:28;101733.73;;;4.48;57.58
62592;BME280;48659;41.622;2.276;2023-02-14T08:08:55;101728.30;;;5.09;57.39
62592;BME280;48659;41.622;2.276;2023-02-14T08:11:23;101726.35;;;4.82;56.68
62592;BME280;48659;41.622;2.276;2023-02-14T08:13:50;101723.32;;;4.40;57.88
62592;BME280;48659;41.622;2.276;2023-02-14T08:16:18;101721.43;;;4.00;58.84
62592;BME280;48659;41.622;2.276;2023-02-14T08:18:45;101715.51;;;3.69;59.79
62592;BME280;48659;41.622;2.276;2023-02-14T08:21:14;101717.03;;;3.94;59.16
62592;BME280;48659;41.622;2.276;2023-02-14T08:23:42;101719.24;;;4.48;59.10
62592;BME280;48659;41.622;2.276;2023-02-14T08:26:10;101719.11;;;4.56;58.25
62592;BME280;48659;41.622;2.276;2023-02-14T08:28:38;101718.14;;;4.83;57.89
62592;BME280;48659;41.622;2.276;2023-02-14T08:31:07;101712.71;;;5.11;57.07
62592;BME280;48659;41.622;2.276;2023-02-14T08:33:34;101708.39;;;5.40;55.67
62592;BME280;48659;41.622;2.276;2023-02-14T08:36:02;101706.87;;;5.89;54.05
62592;BME280;48659;41.622;2.276;2023-02-14T08:38:29;101702.93;;;5.62;55.27
62592;BME280;48659;41.622;2.276;2023-02-14T08:40:59;101700.45;;;5.95;55.06
62592;BME280;48659;41.622;2.276;2023-02-14T08:43:27;101694.71;;;5.05;56.16
62592;BME280;48659;41.622;2.276;2023-02-14T08:45:54;101695.81;;;5.81;54.81
62592;BME280;48659;41.622;2.276;2023-02-14T08:48:22;101695.92;;;5.89;54.28
62592;BME280;48659;41.622;2.276;2023-02-14T08:50:49;101694.20;;;6.60;54.04
62592;BME280;48659;41.622;2.276;2023-02-14T08:53:16;101691.70;;;6.69;52.75
62592;BME280;48659;41.622;2.276;2023-02-14T08:55:43;101688.99;;;6.22;53.63
62592;BME280;48659;41.622;2.276;2023-02-14T08:58:10;101689.84;;;6.42;53.20
62592;BME280;48659;41.622;2.276;2023-02-14T09:00:38;101691.09;;;6.65;52.78
62592;BME280;48659;41.622;2.276;2023-02-14T09:03:16;101691.30;;;6.37;53.52
62592;BME280;48659;41.622;2.276;2023-02-14T09:05:43;101686.02;;;7.32;51.32
62592;BME280;48659;41.622;2.276;2023-02-14T09:08:14;101689.44;;;6.51;52.61
62592;BME280;48659;41.622;2.276;2023-02-14T09:10:41;101688.14;;;7.17;51.14
62592;BME280;48659;41.622;2.276;2023-02-14T09:13:09;101687.36;;;7.54;50.11
62592;BME280;48659;41.622;2.276;2023-02-14T09:15:36;101683.55;;;6.94;50.56
62592;BME280;48659;41.622;2.276;2023-02-14T09:18:04;101681.19;;;7.68;49.60
62592;BME280;48659;41.622;2.276;2023-02-14T09:20:31;101682.45;;;7.86;49.84
62592;BME280;48659;41.622;2.276;2023-02-14T09:22:58;101681.80;;;7.63;50.04
62592;BME280;48659;41.622;2.276;2023-02-14T09:25:26;101679.88;;;8.03;50.23
62592;BME280;48659;41.622;2.276;2023-02-14T09:27:53;101682.22;;;7.54;50.71
62592;BME280;48659;41.622;2.276;2023-02-14T09:30:21;101681.70;;;7.48;51.93
62592;BME280;48659;41.622;2.276;2023-02-14T09:32:51;101676.74;;;8.00;50.69
62592;BME280;48659;41.622;2.276;2023-02-14T09:35:19;101673.92;;;7.00;51.57
62592;BME280;48659;41.622;2.276;2023-02-14T09:37:46;101674.25;;;7.91;50.12
62592;BME280;48659;41.622;2.276;2023-02-14T09:40:15;101672.54;;;8.32;49.42
62592;BME280;48659;41.622;2.276;2023-02-14T09:42:49;101671.90;;;8.12;49.75
62592;BME280;48659;41.622;2.276;2023-02-14T09:45:21;101668.74;;;7.79;50.02
62592;BME280;48659;41.622;2.276;2023-02-14T09:47:54;101671.02;;;8.26;49.55
62592;BME280;48659;41.622;2.276;2023-02-14T09:50:27;101669.57;;;7.30;51.70
62592;BME280;48659;41.622;2.276;2023-02-14T09:52:58;101668.41;;;8.29;49.54
62592;BME280;48659;41.622;2.276;2023-02-14T09:55:34;101661.24;;;8.98;48.78
62592;BME280;48659;41.622;2.276;2023-02-14T09:58:22;101655.86;;;7.79;51.21
62592;BME280;48659;41.622;2.276;2023-02-14T10:00:58;101647.97;;;8.94;48.60
62592;BME280;48659;41.622;2.276;2023-02-14T10:03:41;101645.19;;;8.74;47.99
62592;BME280;48659;41.622;2.276;2023-02-14T10:06:26;101637.81;;;8.85;47.81
62592;BME280;48659;41.622;2.276;2023-02-14T10:09:10;101634.97;;;9.18;48.78
62592;BME280;48659;41.622;2.276;2023-02-14T10:11:44;101633.26;;;9.44;47.43
62592;BME280;48659;41.622;2.276;2023-02-14T10:14:14;101634.97;;;7.06;52.35
62592;BME280;48659;41.622;2.276;2023-02-14T10:16:45;101626.13;;;9.14;48.47
62592;BME280;48659;41.622;2.276;2023-02-14T10:19:18;101621.77;;;9.37;47.85
62592;BME280;48659;41.622;2.276;2023-02-14T10:21:53;101625.98;;;8.84;49.28
62592;BME280;48659;41.622;2.276;2023-02-14T10:24:25;101617.11;;;8.61;49.31
62592;BME280;48659;41.622;2.276;2023-02-14T10:27:00;101610.12;;;9.83;46.88
62592;BME280;48659;41.622;2.276;2023-02-14T10:29:29;101606.63;;;10.25;46.99
62592;BME280;48659;41.622;2.276;2023-02-14T10:31:59;101605.97;;;10.52;47.89
62592;BME280;48659;41.622;2.276;2023-02-14T10:34:33;101603.49;;;10.59;46.74
62592;BME280;48659;41.622;2.276;2023-02-14T10:37:24;101601.99;;;9.97;47.18
62592;BME280;48659;41.622;2.276;2023-02-14T10:40:08;101600.11;;;10.76;45.89
62592;BME280;48659;41.622;2.276;2023-02-14T10:42:52;101601.09;;;9.87;48.01
62592;BME280;48659;41.622;2.276;2023-02-14T10:45:26;101596.96;;;10.70;46.23
62592;BME280;48659;41.622;2.276;2023-02-14T10:48:04;101598.22;;;9.79;49.05
62592;BME280;48659;41.622;2.276;2023-02-14T10:50:51;101590.50;;;10.99;47.25
62592;BME280;48659;41.622;2.276;2023-02-14T10:53:27;101591.04;;;9.46;49.06
62592;BME280;48659;41.622;2.276;2023-02-14T10:56:01;101584.02;;;10.58;48.33
62592;BME280;48659;41.622;2.276;2023-02-14T10:58:35;101581.85;;;11.07;45.97
62592;BME280;48659;41.622;2.276;2023-02-14T11:01:09;101576.07;;;10.79;46.78
62592;BME280;48659;41.622;2.276;2023-02-14T11:03:39;101577.64;;;11.00;48.99
62592;BME280;48659;41.622;2.276;2023-02-14T11:06:12;101574.25;;;10.69;47.56
62592;BME280;48659;41.622;2.276;2023-02-14T11:08:40;101577.68;;;9.83;48.56
62592;BME280;48659;41.622;2.276;2023-02-14T11:11:14;101571.06;;;11.03;46.59
62592;BME280;48659;41.622;2.276;2023-02-14T11:13:44;101568.24;;;11.56;45.30
62592;BME280;48659;41.622;2.276;2023-02-14T11:16:27;101562.99;;;11.58;44.59
62592;BME280;48659;41.622;2.276;2023-02-14T11:19:08;101559.51;;;11.91;44.51
62592;BME280;48659;41.622;2.276;2023-02-14T11:21:38;101559.01;;;11.83;45.46
62592;BME280;48659;41.622;2.276;2023-02-14T11:24:17;101559.21;;;12.28;43.76
62592;BME280;48659;41.622;2.276;2023-02-14T11:26:46;101556.40;;;12.09;44.49
62592;BME280;48659;41.622;2.276;2023-02-14T11:29:22;101549.51;;;11.38;44.56
62592;BME280;48659;41.622;2.276;2023-02-14T11:31:51;101544.02;;;10.85;46.62
62592;BME280;48659;41.622;2.276;2023-02-14T11:34:29;101544.40;;;11.79;44.10
62592;BME280;48659;41.622;2.276;2023-02-14T11:36:58;101539.05;;;10.71;45.30
62592;BME280;48659;41.622;2.276;2023-02-14T11:39:29;101533.67;;;11.42;44.93
62592;BME280;48659;41.622;2.276;2023-02-14T11:42:00;101524.98;;;10.94;46.30
62592;BME280;48659;41.622;2.276;2023-02-14T11:44:30;101516.39;;;11.32;44.19
62592;BME280;48659;41.622;2.276;2023-02-14T11:47:17;101513.28;;;11.92;44.72
62592;BME280;48659;41.622;2.276;2023-02-14T11:49:54;101518.21;;;11.36;43.61
62592;BME280;48659;41.622;2.276;2023-02-14T11:52:23;101512.42;;;11.24;43.11
62592;BME280;48659;41.622;2.276;2023-02-14T11:54:53;101510.13;;;11.30;43.10
62592;BME280;48659;41.622;2.276;2023-02-14T11:57:28;101505.19;;;11.50;42.58
62592;BME280;48659;41.622;2.276;2023-02-14T12:00:00;101495.28;;;13.09;40.68
62592;BME280;48659;41.622;2.276;2023-02-14T12:02:35;101496.26;;;12.25;41.29
62592;BME280;48659;41.622;2.276;2023-02-14T12:05:15;101501.67;;;11.13;42.85
62592;BME280;48659;41.622;2.276;2023-02-14T12:07:45;101489.02;;;11.90;41.18
62592;BME280;48659;41.622;2.276;2023-02-14T12:10:20;101488.19;;;11.77;42.31
62592;BME280;48659;41.622;2.276;2023-02-14T12:12:52;101478.24;;;12.65;40.75
62592;BME280;48659;41.622;2.276;2023-02-14T12:15:27;101477.20;;;12.49;40.41
62592;BME280;48659;41.622;2.276;2023-02-14T12:18:02;101471.33;;;13.13;39.54
62592;BME280;48659;41.622;2.276;2023-02-14T12:20:54;101472.45;;;13.45;37.84
62592;BME280;48659;41.622;2.276;2023-02-14T12:23:26;101465.47;;;12.70;38.90
62592;BME280;48659;41.622;2.276;2023-02-14T12:26:00;101462.42;;;12.96;38.94
62592;BME280;48659;41.622;2.276;2023-02-14T12:28:35;101459.71;;;13.54;37.91
62592;BME280;48659;41.622;2.276;2023-02-14T12:31:08;101457.57;;;11.55;40.45
62592;BME280;48659;41.622;2.276;2023-02-14T12:33:36;101451.71;;;12.59;37.99
62592;BME280;48659;41.622;2.276;2023-02-14T12:36:12;101449.48;;;13.35;36.98
62592;BME280;48659;41.622;2.276;2023-02-14T12:38:48;101447.90;;;13.22;38.21
62592;BME280;48659;41.622;2.276;2023-02-14T12:41:34;101449.37;;;12.91;36.57
62592;BME280;48659;41.622;2.276;2023-02-14T12:44:17;101443.81;;;13.74;36.03
62592;BME280;48659;41.622;2.276;2023-02-14T12:46:58;101435.06;;;13.46;37.20
62592;BME280;48659;41.622;2.276;2023-02-14T12:49:50;101434.83;;;13.32;37.45
62592;BME280;48659;41.622;2.276;2023-02-14T12:52:33;101433.19;;;13.93;36.69
62592;BME280;48659;41.622;2.276;2023-02-14T12:55:35;101426.52;;;12.95;36.90
62592;BME280;48659;41.622;2.276;2023-02-14T12:58:24;101425.85;;;13.37;36.67
62592;BME280;48659;41.622;2.276;2023-02-14T13:01:08;101429.41;;;13.21;37.79
62592;BME280;48659;41.622;2.276;2023-02-14T13:03:54;101424.78;;;13.24;37.24
62592;BME280;48659;41.622;2.276;2023-02-14T13:06:29;101414.29;;;13.25;37.53
62592;BME280;48659;41.622;2.276;2023-02-14T13:09:19;101411.62;;;14.01;36.73
62592;BME280;48659;41.622;2.276;2023-02-14T13:12:00;101405.91;;;11.97;40.70
62592;BME280;48659;41.622;2.276;2023-02-14T13:14:43;101399.60;;;13.03;39.72
62592;BME280;48659;41.622;2.276;2023-02-14T13:17:22;101391.74;;;12.68;39.14
62592;BME280;48659;41.622;2.276;2023-02-14T13:19:58;101385.74;;;13.81;38.76
62592;BME280;48659;41.622;2.276;2023-02-14T13:22:30;101381.24;;;12.79;41.90
62592;BME280;48659;41.622;2.276;2023-02-14T13:25:03;101380.87;;;13.96;38.40